sensor_id;sensor_type;location;lat;lon;timestamp;temperature;humidity
49441;DHT22;35317;51.978;6.296;2022-07-10T00:04:58;15.90;80.00
49441;DHT22;35317;51.978;6.296;2022-07-10T00:09:59;15.80;80.00
49441;DHT22;35317;51.978;6.296;2022-07-10T00:15:00;15.80;80.10
49441;DHT22;35317;51.978;6.296;2022-07-10T00:20:01;15.80;80.10
49441;DHT22;35317;51.978;6.296;2022-07-10T00:25:07;15.70;80.20
49441;DHT22;35317;51.978;6.296;2022-07-10T00:30:10;15.70;80.30
49441;DHT22;35317;51.978;6.296;2022-07-10T00:35:11;15.70;80.40
49441;DHT22;35317;51.978;6.296;2022-07-10T00:40:12;15.60;80.50
49441;DHT22;35317;51.978;6.296;2022-07-10T00:45:13;15.60;80.70
49441;DHT22;35317;51.978;6.296;2022-07-10T00:50:14;15.60;80.90
49441;DHT22;35317;51.978;6.296;2022-07-10T00:55:14;15.50;81.10
49441;DHT22;35317;51.978;6.296;2022-07-10T01:00:15;15.40;81.50
49441;DHT22;35317;51.978;6.296;2022-07-10T01:05:16;15.40;81.80
49441;DHT22;35317;51.978;6.296;2022-07-10T01:10:17;15.40;82.20
49441;DHT22;35317;51.978;6.296;2022-07-10T01:15:18;15.40;82.40
49441;DHT22;35317;51.978;6.296;2022-07-10T01:20:18;15.40;82.50
49441;DHT22;35317;51.978;6.296;2022-07-10T01:25:19;15.40;82.70
49441;DHT22;35317;51.978;6.296;2022-07-10T01:30:20;15.40;82.80
49441;DHT22;35317;51.978;6.296;2022-07-10T01:35:21;15.30;83.10
49441;DHT22;35317;51.978;6.296;2022-07-10T01:40:22;15.10;83.50
49441;DHT22;35317;51.978;6.296;2022-07-10T01:45:23;15.00;83.80
49441;DHT22;35317;51.978;6.296;2022-07-10T01:50:24;14.80;84.20
49441;DHT22;35317;51.978;6.296;2022-07-10T01:55:25;14.70;84.70
49441;DHT22;35317;51.978;6.296;2022-07-10T02:00:26;14.60;85.10
49441;DHT22;35317;51.978;6.296;2022-07-10T02:05:26;14.50;85.60
49441;DHT22;35317;51.978;6.296;2022-07-10T02:10:27;14.40;86.10
49441;DHT22;35317;51.978;6.296;2022-07-10T02:15:28;14.30;86.50
49441;DHT22;35317;51.978;6.296;2022-07-10T02:20:29;14.20;86.80
49441;DHT22;35317;51.978;6.296;2022-07-10T02:25:43;14.10;87.30
49441;DHT22;35317;51.978;6.296;2022-07-10T02:30:44;14.00;87.60
49441;DHT22;35317;51.978;6.296;2022-07-10T02:35:44;14.00;87.90
49441;DHT22;35317;51.978;6.296;2022-07-10T02:40:45;14.00;88.30
49441;DHT22;35317;51.978;6.296;2022-07-10T02:45:46;14.00;88.50
49441;DHT22;35317;51.978;6.296;2022-07-10T02:50:47;14.00;88.80
49441;DHT22;35317;51.978;6.296;2022-07-10T02:55:47;13.90;89.00
49441;DHT22;35317;51.978;6.296;2022-07-10T03:00:48;13.90;89.30
49441;DHT22;35317;51.978;6.296;2022-07-10T03:05:49;13.90;89.50
49441;DHT22;35317;51.978;6.296;2022-07-10T03:10:50;13.80;89.70
49441;DHT22;35317;51.978;6.296;2022-07-10T03:15:53;13.80;90.00
49441;DHT22;35317;51.978;6.296;2022-07-10T03:20:55;13.70;90.10
49441;DHT22;35317;51.978;6.296;2022-07-10T03:25:56;13.70;90.30
49441;DHT22;35317;51.978;6.296;2022-07-10T03:30:57;13.60;90.60
49441;DHT22;35317;51.978;6.296;2022-07-10T03:35:57;13.70;91.00
49441;DHT22;35317;51.978;6.296;2022-07-10T03:40:58;13.90;90.90
49441;DHT22;35317;51.978;6.296;2022-07-10T03:45:59;14.00;91.00
49441;DHT22;35317;51.978;6.296;2022-07-10T03:51:00;14.10;91.00
49441;DHT22;35317;51.978;6.296;2022-07-10T03:56:01;14.20;91.00
49441;DHT22;35317;51.978;6.296;2022-07-10T04:01:02;14.20;91.10
49441;DHT22;35317;51.978;6.296;2022-07-10T04:06:02;14.30;91.10
49441;DHT22;35317;51.978;6.296;2022-07-10T04:11:03;14.40;91.10
49441;DHT22;35317;51.978;6.296;2022-07-10T04:16:05;14.60;91.10
49441;DHT22;35317;51.978;6.296;2022-07-10T04:21:06;14.70;91.10
49441;DHT22;35317;51.978;6.296;2022-07-10T04:26:07;14.80;91.00
49441;DHT22;35317;51.978;6.296;2022-07-10T04:31:08;14.90;90.80
49441;DHT22;35317;51.978;6.296;2022-07-10T04:36:08;15.00;90.80
49441;DHT22;35317;51.978;6.296;2022-07-10T04:41:09;15.10;90.70
49441;DHT22;35317;51.978;6.296;2022-07-10T04:46:10;15.20;90.70
49441;DHT22;35317;51.978;6.296;2022-07-10T04:51:11;15.30;90.60
49441;DHT22;35317;51.978;6.296;2022-07-10T04:56:11;15.50;90.40
49441;DHT22;35317;51.978;6.296;2022-07-10T05:01:12;15.50;90.30
49441;DHT22;35317;51.978;6.296;2022-07-10T05:06:13;15.70;90.10
49441;DHT22;35317;51.978;6.296;2022-07-10T05:11:14;15.70;89.90
49441;DHT22;35317;51.978;6.296;2022-07-10T05:16:15;15.80;89.70
49441;DHT22;35317;51.978;6.296;2022-07-10T05:21:16;15.90;89.60
49441;DHT22;35317;51.978;6.296;2022-07-10T05:26:17;15.90;89.30
49441;DHT22;35317;51.978;6.296;2022-07-10T05:31:18;16.00;89.30
49441;DHT22;35317;51.978;6.296;2022-07-10T05:36:18;16.10;88.90
49441;DHT22;35317;51.978;6.296;2022-07-10T05:41:19;16.30;88.70
49441;DHT22;35317;51.978;6.296;2022-07-10T05:46:20;16.30;88.50
49441;DHT22;35317;51.978;6.296;2022-07-10T05:51:21;16.40;88.20
49441;DHT22;35317;51.978;6.296;2022-07-10T05:56:22;16.40;88.60
49441;DHT22;35317;51.978;6.296;2022-07-10T06:01:23;16.40;87.90
49441;DHT22;35317;51.978;6.296;2022-07-10T06:06:24;16.50;87.80
49441;DHT22;35317;51.978;6.296;2022-07-10T06:11:25;16.60;87.60
49441;DHT22;35317;51.978;6.296;2022-07-10T06:16:26;16.70;87.50
49441;DHT22;35317;51.978;6.296;2022-07-10T06:21:26;16.70;87.90
49441;DHT22;35317;51.978;6.296;2022-07-10T06:26:27;16.80;87.10
49441;DHT22;35317;51.978;6.296;2022-07-10T06:31:28;16.90;86.80
49441;DHT22;35317;51.978;6.296;2022-07-10T06:36:29;17.00;86.30
49441;DHT22;35317;51.978;6.296;2022-07-10T06:41:29;17.10;86.00
49441;DHT22;35317;51.978;6.296;2022-07-10T06:46:31;17.30;85.90
49441;DHT22;35317;51.978;6.296;2022-07-10T06:51:32;17.50;85.20
49441;DHT22;35317;51.978;6.296;2022-07-10T06:56:33;17.60;84.60
49441;DHT22;35317;51.978;6.296;2022-07-10T07:01:34;17.70;84.50
49441;DHT22;35317;51.978;6.296;2022-07-10T07:06:35;17.60;84.50
49441;DHT22;35317;51.978;6.296;2022-07-10T07:11:35;17.60;84.60
49441;DHT22;35317;51.978;6.296;2022-07-10T07:16:36;17.50;84.60
49441;DHT22;35317;51.978;6.296;2022-07-10T07:21:43;17.50;84.90
49441;DHT22;35317;51.978;6.296;2022-07-10T07:27:07;17.50;85.10
49441;DHT22;35317;51.978;6.296;2022-07-10T07:32:08;17.40;85.70
49441;DHT22;35317;51.978;6.296;2022-07-10T07:37:09;17.30;88.40
49441;DHT22;35317;51.978;6.296;2022-07-10T07:42:09;17.10;89.60
49441;DHT22;35317;51.978;6.296;2022-07-10T07:47:10;17.10;90.70
49441;DHT22;35317;51.978;6.296;2022-07-10T07:52:11;17.10;91.00
49441;DHT22;35317;51.978;6.296;2022-07-10T07:57:12;17.00;91.60
49441;DHT22;35317;51.978;6.296;2022-07-10T08:02:13;16.90;92.10
49441;DHT22;35317;51.978;6.296;2022-07-10T08:07:14;16.90;92.60
49441;DHT22;35317;51.978;6.296;2022-07-10T08:12:15;16.90;93.20
49441;DHT22;35317;51.978;6.296;2022-07-10T08:17:16;17.10;93.50
49441;DHT22;35317;51.978;6.296;2022-07-10T08:22:17;17.40;93.50
49441;DHT22;35317;51.978;6.296;2022-07-10T08:27:17;17.60;93.30
49441;DHT22;35317;51.978;6.296;2022-07-10T08:32:18;18.00;93.10
49441;DHT22;35317;51.978;6.296;2022-07-10T08:37:19;18.10;92.50
49441;DHT22;35317;51.978;6.296;2022-07-10T08:42:21;18.10;92.40
49441;DHT22;35317;51.978;6.296;2022-07-10T08:47:22;17.80;92.40
49441;DHT22;35317;51.978;6.296;2022-07-10T08:52:37;17.60;92.90
49441;DHT22;35317;51.978;6.296;2022-07-10T08:57:42;17.60;93.40
49441;DHT22;35317;51.978;6.296;2022-07-10T09:02:43;17.40;93.70
49441;DHT22;35317;51.978;6.296;2022-07-10T09:07:44;17.40;94.00
49441;DHT22;35317;51.978;6.296;2022-07-10T09:12:59;17.30;94.40
49441;DHT22;35317;51.978;6.296;2022-07-10T09:18:03;17.30;94.80
49441;DHT22;35317;51.978;6.296;2022-07-10T09:28:21;17.50;95.10
49441;DHT22;35317;51.978;6.296;2022-07-10T09:33:28;17.70;95.10
49441;DHT22;35317;51.978;6.296;2022-07-10T09:43:47;17.80;95.00
49441;DHT22;35317;51.978;6.296;2022-07-10T09:49:09;17.80;95.20
49441;DHT22;35317;51.978;6.296;2022-07-10T09:54:14;18.10;94.70
49441;DHT22;35317;51.978;6.296;2022-07-10T09:59:17;18.40;94.20
49441;DHT22;35317;51.978;6.296;2022-07-10T10:04:21;18.60;94.00
49441;DHT22;35317;51.978;6.296;2022-07-10T10:14:34;19.00;92.30
49441;DHT22;35317;51.978;6.296;2022-07-10T10:19:36;19.20;91.80
49441;DHT22;35317;51.978;6.296;2022-07-10T10:24:57;19.30;91.40
49441;DHT22;35317;51.978;6.296;2022-07-10T10:29:58;19.30;90.70
49441;DHT22;35317;51.978;6.296;2022-07-10T10:34:59;19.50;90.20
49441;DHT22;35317;51.978;6.296;2022-07-10T10:40:00;19.50;89.30
49441;DHT22;35317;51.978;6.296;2022-07-10T11:06:51;19.70;85.20
49441;DHT22;35317;51.978;6.296;2022-07-10T11:17:07;19.60;84.90
49441;DHT22;35317;51.978;6.296;2022-07-10T11:22:18;19.50;85.10
49441;DHT22;35317;51.978;6.296;2022-07-10T11:27:36;19.30;85.10
49441;DHT22;35317;51.978;6.296;2022-07-10T11:32:50;19.30;86.00
49441;DHT22;35317;51.978;6.296;2022-07-10T11:37:52;19.60;86.10
49441;DHT22;35317;51.978;6.296;2022-07-10T11:42:54;20.30;84.80
49441;DHT22;35317;51.978;6.296;2022-07-10T11:47:56;21.00;82.40
49441;DHT22;35317;51.978;6.296;2022-07-10T11:52:57;21.50;79.80
49441;DHT22;35317;51.978;6.296;2022-07-10T11:57:58;22.00;77.60
49441;DHT22;35317;51.978;6.296;2022-07-10T12:03:17;22.30;75.90
49441;DHT22;35317;51.978;6.296;2022-07-10T12:08:19;22.40;73.00
49441;DHT22;35317;51.978;6.296;2022-07-10T12:13:20;22.40;73.10
49441;DHT22;35317;51.978;6.296;2022-07-10T12:18:22;22.40;72.60
49441;DHT22;35317;51.978;6.296;2022-07-10T12:23:24;22.00;73.20
49441;DHT22;35317;51.978;6.296;2022-07-10T12:28:24;21.70;74.70
49441;DHT22;35317;51.978;6.296;2022-07-10T12:33:25;21.90;74.50
49441;DHT22;35317;51.978;6.296;2022-07-10T12:38:29;21.80;74.60
49441;DHT22;35317;51.978;6.296;2022-07-10T12:43:34;21.50;75.50
49441;DHT22;35317;51.978;6.296;2022-07-10T12:48:35;21.20;76.80
49441;DHT22;35317;51.978;6.296;2022-07-10T12:53:45;21.10;77.20
49441;DHT22;35317;51.978;6.296;2022-07-10T12:58:46;21.20;77.00
49441;DHT22;35317;51.978;6.296;2022-07-10T13:03:47;21.40;76.30
49441;DHT22;35317;51.978;6.296;2022-07-10T13:08:48;21.40;76.10
49441;DHT22;35317;51.978;6.296;2022-07-10T13:13:49;21.30;75.90
49441;DHT22;35317;51.978;6.296;2022-07-10T13:18:53;21.10;76.40
49441;DHT22;35317;51.978;6.296;2022-07-10T13:23:54;21.10;76.60
49441;DHT22;35317;51.978;6.296;2022-07-10T13:28:56;21.30;76.30
49441;DHT22;35317;51.978;6.296;2022-07-10T13:33:57;21.30;75.80
49441;DHT22;35317;51.978;6.296;2022-07-10T13:38:58;21.10;76.10
49441;DHT22;35317;51.978;6.296;2022-07-10T13:43:58;21.00;76.00
49441;DHT22;35317;51.978;6.296;2022-07-10T13:48:59;21.20;75.80
49441;DHT22;35317;51.978;6.296;2022-07-10T13:54:00;21.50;74.50
49441;DHT22;35317;51.978;6.296;2022-07-10T13:59:01;21.90;73.60
49441;DHT22;35317;51.978;6.296;2022-07-10T14:04:02;22.10;71.50
49441;DHT22;35317;51.978;6.296;2022-07-10T14:09:03;22.30;70.90
49441;DHT22;35317;51.978;6.296;2022-07-10T14:14:03;22.60;70.30
49441;DHT22;35317;51.978;6.296;2022-07-10T14:19:04;23.00;69.30
49441;DHT22;35317;51.978;6.296;2022-07-10T14:24:06;23.30;67.40
49441;DHT22;35317;51.978;6.296;2022-07-10T14:29:07;23.50;66.60
49441;DHT22;35317;51.978;6.296;2022-07-10T14:34:07;23.60;66.20
49441;DHT22;35317;51.978;6.296;2022-07-10T14:39:08;23.60;65.60
49441;DHT22;35317;51.978;6.296;2022-07-10T14:44:09;23.60;65.70
49441;DHT22;35317;51.978;6.296;2022-07-10T14:49:12;23.70;64.30
49441;DHT22;35317;51.978;6.296;2022-07-10T14:54:38;23.50;63.10
49441;DHT22;35317;51.978;6.296;2022-07-10T14:59:39;23.40;63.90
49441;DHT22;35317;51.978;6.296;2022-07-10T15:04:40;23.30;63.70
49441;DHT22;35317;51.978;6.296;2022-07-10T15:09:41;23.10;64.00
49441;DHT22;35317;51.978;6.296;2022-07-10T15:14:41;23.10;64.50
49441;DHT22;35317;51.978;6.296;2022-07-10T15:19:42;23.00;63.80
49441;DHT22;35317;51.978;6.296;2022-07-10T15:24:46;23.00;63.80
49441;DHT22;35317;51.978;6.296;2022-07-10T15:29:52;23.10;63.70
49441;DHT22;35317;51.978;6.296;2022-07-10T15:34:53;23.20;63.40
49441;DHT22;35317;51.978;6.296;2022-07-10T15:39:54;23.20;63.30
49441;DHT22;35317;51.978;6.296;2022-07-10T15:44:55;23.30;63.00
49441;DHT22;35317;51.978;6.296;2022-07-10T15:49:56;23.30;62.80
49441;DHT22;35317;51.978;6.296;2022-07-10T15:54:57;23.50;62.90
49441;DHT22;35317;51.978;6.296;2022-07-10T15:59:58;23.30;62.40
49441;DHT22;35317;51.978;6.296;2022-07-10T16:04:59;23.10;62.80
49441;DHT22;35317;51.978;6.296;2022-07-10T16:09:59;22.80;63.40
49441;DHT22;35317;51.978;6.296;2022-07-10T16:15:00;22.60;63.90
49441;DHT22;35317;51.978;6.296;2022-07-10T16:20:01;22.60;64.40
49441;DHT22;35317;51.978;6.296;2022-07-10T16:25:02;22.60;64.90
49441;DHT22;35317;51.978;6.296;2022-07-10T16:30:21;22.60;65.30
49441;DHT22;35317;51.978;6.296;2022-07-10T16:35:22;22.50;64.50
49441;DHT22;35317;51.978;6.296;2022-07-10T16:40:23;22.40;65.00
49441;DHT22;35317;51.978;6.296;2022-07-10T16:45:24;22.40;65.10
49441;DHT22;35317;51.978;6.296;2022-07-10T16:50:25;22.40;65.30
49441;DHT22;35317;51.978;6.296;2022-07-10T16:55:27;22.40;65.60
49441;DHT22;35317;51.978;6.296;2022-07-10T17:00:28;22.50;65.70
49441;DHT22;35317;51.978;6.296;2022-07-10T17:05:29;22.60;65.80
49441;DHT22;35317;51.978;6.296;2022-07-10T17:10:30;22.60;66.40
49441;DHT22;35317;51.978;6.296;2022-07-10T17:15:31;22.60;66.00
49441;DHT22;35317;51.978;6.296;2022-07-10T17:20:32;22.60;66.40
49441;DHT22;35317;51.978;6.296;2022-07-10T17:25:33;22.50;66.30
49441;DHT22;35317;51.978;6.296;2022-07-10T17:30:34;22.50;66.50
49441;DHT22;35317;51.978;6.296;2022-07-10T17:35:35;22.40;66.90
49441;DHT22;35317;51.978;6.296;2022-07-10T17:40:36;22.40;67.10
49441;DHT22;35317;51.978;6.296;2022-07-10T17:45:37;22.20;67.20
49441;DHT22;35317;51.978;6.296;2022-07-10T17:50:38;22.10;67.60
49441;DHT22;35317;51.978;6.296;2022-07-10T17:55:38;22.00;67.90
49441;DHT22;35317;51.978;6.296;2022-07-10T18:00:39;22.00;68.30
49441;DHT22;35317;51.978;6.296;2022-07-10T18:05:40;21.90;68.30
49441;DHT22;35317;51.978;6.296;2022-07-10T18:10:46;21.90;68.30
49441;DHT22;35317;51.978;6.296;2022-07-10T18:15:47;21.90;68.30
49441;DHT22;35317;51.978;6.296;2022-07-10T18:20:48;21.80;68.70
49441;DHT22;35317;51.978;6.296;2022-07-10T18:25:48;21.60;69.00
49441;DHT22;35317;51.978;6.296;2022-07-10T18:30:49;21.60;69.70
49441;DHT22;35317;51.978;6.296;2022-07-10T18:35:50;21.60;70.00
49441;DHT22;35317;51.978;6.296;2022-07-10T18:40:50;21.50;70.30
49441;DHT22;35317;51.978;6.296;2022-07-10T18:45:51;21.50;70.70
49441;DHT22;35317;51.978;6.296;2022-07-10T18:50:52;21.50;71.00
49441;DHT22;35317;51.978;6.296;2022-07-10T18:55:53;21.40;71.20
49441;DHT22;35317;51.978;6.296;2022-07-10T19:00:54;21.30;71.40
49441;DHT22;35317;51.978;6.296;2022-07-10T19:05:54;21.20;72.00
49441;DHT22;35317;51.978;6.296;2022-07-10T19:10:55;21.00;72.50
49441;DHT22;35317;51.978;6.296;2022-07-10T19:15:56;20.80;73.50
49441;DHT22;35317;51.978;6.296;2022-07-10T19:20:57;20.70;74.00
49441;DHT22;35317;51.978;6.296;2022-07-10T19:25:58;20.60;74.30
49441;DHT22;35317;51.978;6.296;2022-07-10T19:30:58;20.40;74.80
49441;DHT22;35317;51.978;6.296;2022-07-10T19:35:59;20.40;75.30
49441;DHT22;35317;51.978;6.296;2022-07-10T19:41:00;20.30;75.50
49441;DHT22;35317;51.978;6.296;2022-07-10T19:46:01;20.30;75.70
49441;DHT22;35317;51.978;6.296;2022-07-10T19:51:05;20.20;75.90
49441;DHT22;35317;51.978;6.296;2022-07-10T19:56:07;20.10;76.50
49441;DHT22;35317;51.978;6.296;2022-07-10T20:01:08;19.90;76.90
49441;DHT22;35317;51.978;6.296;2022-07-10T20:06:09;19.80;77.50
49441;DHT22;35317;51.978;6.296;2022-07-10T20:11:10;19.70;78.10
49441;DHT22;35317;51.978;6.296;2022-07-10T20:16:11;19.60;78.80
49441;DHT22;35317;51.978;6.296;2022-07-10T20:21:12;19.50;79.30
49441;DHT22;35317;51.978;6.296;2022-07-10T20:26:13;19.50;79.80
49441;DHT22;35317;51.978;6.296;2022-07-10T20:31:14;19.50;80.10
49441;DHT22;35317;51.978;6.296;2022-07-10T20:36:14;19.40;80.30
49441;DHT22;35317;51.978;6.296;2022-07-10T20:41:33;19.40;80.80
49441;DHT22;35317;51.978;6.296;2022-07-10T20:46:34;19.40;80.90
49441;DHT22;35317;51.978;6.296;2022-07-10T20:51:35;19.40;81.20
49441;DHT22;35317;51.978;6.296;2022-07-10T20:56:35;19.40;81.60
49441;DHT22;35317;51.978;6.296;2022-07-10T21:01:36;19.30;81.90
49441;DHT22;35317;51.978;6.296;2022-07-10T21:06:37;19.20;82.50
49441;DHT22;35317;51.978;6.296;2022-07-10T21:11:38;19.20;82.80
49441;DHT22;35317;51.978;6.296;2022-07-10T21:16:38;19.20;83.20
49441;DHT22;35317;51.978;6.296;2022-07-10T21:21:39;19.10;83.50
49441;DHT22;35317;51.978;6.296;2022-07-10T21:26:40;19.10;83.90
49441;DHT22;35317;51.978;6.296;2022-07-10T21:31:41;19.10;84.30
49441;DHT22;35317;51.978;6.296;2022-07-10T21:36:42;19.00;84.70
49441;DHT22;35317;51.978;6.296;2022-07-10T21:41:43;19.00;85.10
49441;DHT22;35317;51.978;6.296;2022-07-10T21:46:43;18.90;85.60
49441;DHT22;35317;51.978;6.296;2022-07-10T21:51:44;18.90;86.00
49441;DHT22;35317;51.978;6.296;2022-07-10T21:56:45;18.80;86.40
49441;DHT22;35317;51.978;6.296;2022-07-10T22:01:46;18.70;87.50
49441;DHT22;35317;51.978;6.296;2022-07-10T22:06:46;18.60;87.50
49441;DHT22;35317;51.978;6.296;2022-07-10T22:11:49;18.60;88.10
49441;DHT22;35317;51.978;6.296;2022-07-10T22:16:50;18.60;88.70
49441;DHT22;35317;51.978;6.296;2022-07-10T22:21:51;18.60;88.90
49441;DHT22;35317;51.978;6.296;2022-07-10T22:26:52;18.60;89.00
49441;DHT22;35317;51.978;6.296;2022-07-10T22:31:53;18.60;89.10
49441;DHT22;35317;51.978;6.296;2022-07-10T22:36:54;18.60;89.30
49441;DHT22;35317;51.978;6.296;2022-07-10T22:41:54;18.60;89.40
49441;DHT22;35317;51.978;6.296;2022-07-10T22:46:55;18.60;89.50
49441;DHT22;35317;51.978;6.296;2022-07-10T22:51:56;18.60;89.70
49441;DHT22;35317;51.978;6.296;2022-07-10T22:56:58;18.60;89.80
49441;DHT22;35317;51.978;6.296;2022-07-10T23:01:59;18.50;90.10
49441;DHT22;35317;51.978;6.296;2022-07-10T23:07:00;18.50;90.10
49441;DHT22;35317;51.978;6.296;2022-07-10T23:12:00;18.60;90.10
49441;DHT22;35317;51.978;6.296;2022-07-10T23:17:01;18.60;90.10
49441;DHT22;35317;51.978;6.296;2022-07-10T23:22:02;18.60;90.20
49441;DHT22;35317;51.978;6.296;2022-07-10T23:27:04;18.50;90.20
49441;DHT22;35317;51.978;6.296;2022-07-10T23:32:05;18.50;90.30
49441;DHT22;35317;51.978;6.296;2022-07-10T23:37:06;18.50;90.40
49441;DHT22;35317;51.978;6.296;2022-07-10T23:42:07;18.50;90.40
49441;DHT22;35317;51.978;6.296;2022-07-10T23:47:09;18.60;90.50
49441;DHT22;35317;51.978;6.296;2022-07-10T23:52:10;18.60;90.70
49441;DHT22;35317;51.978;6.296;2022-07-10T23:57:12;18.60;90.60
